createdAt,value
2019-05-21T00:01:15.755Z,5.97
2019-05-21T00:03:45.113Z,5.47
2019-05-21T00:06:14.491Z,7.20
2019-05-21T00:08:44.008Z,9.77
2019-05-21T00:11:13.464Z,6.73
2019-05-21T00:13:42.821Z,8.10
2019-05-21T00:16:12.233Z,8.20
2019-05-21T00:18:41.720Z,9.23
2019-05-21T00:21:11.151Z,13.23
2019-05-21T00:23:40.566Z,11.53
2019-05-21T00:26:09.925Z,10.70
2019-05-21T00:28:40.433Z,11.83
2019-05-21T00:31:45.628Z,12.50
2019-05-21T00:34:51.200Z,16.43
2019-05-21T00:37:56.433Z,9.90
2019-05-21T00:41:01.410Z,9.83
2019-05-21T00:43:52.810Z,12.53
2019-05-21T00:46:22.208Z,8.77
2019-05-21T00:48:51.654Z,11.73
2019-05-21T00:51:21.055Z,9.47
2019-05-21T00:53:50.437Z,10.80
2019-05-21T00:56:19.959Z,10.80
2019-05-21T00:58:49.574Z,8.50
2019-05-21T01:01:18.939Z,12.20
2019-05-21T01:03:48.322Z,10.27
2019-05-21T01:06:17.823Z,11.40
2019-05-21T01:08:48.629Z,11.30
2019-05-21T01:11:17.982Z,12.30
2019-05-21T01:13:47.426Z,9.73
2019-05-21T01:16:16.870Z,18.37
2019-05-21T01:18:46.401Z,9.80
2019-05-21T01:21:15.819Z,10.80
2019-05-21T01:23:45.210Z,12.73
2019-05-21T01:26:14.720Z,9.17
2019-05-21T01:28:44.155Z,10.63
2019-05-21T01:31:13.738Z,12.77
2019-05-21T01:33:43.195Z,12.70
2019-05-21T01:36:12.587Z,9.97
2019-05-21T01:38:41.980Z,10.10
2019-05-21T01:41:11.445Z,10.07
2019-05-21T01:43:40.985Z,14.10
2019-05-21T01:46:10.367Z,12.43
2019-05-21T01:48:39.738Z,11.93
2019-05-21T01:51:09.483Z,12.00
2019-05-21T01:53:38.934Z,12.30
2019-05-21T01:56:08.296Z,10.57
2019-05-21T01:58:37.721Z,11.53
2019-05-21T02:01:07.288Z,13.63
2019-05-21T02:03:36.746Z,12.10
2019-05-21T02:06:06.329Z,11.23
2019-05-21T02:08:35.899Z,10.33
2019-05-21T02:11:05.422Z,13.33
2019-05-21T02:13:34.837Z,12.10
2019-05-21T02:16:04.426Z,15.83
2019-05-21T02:18:33.875Z,12.40
2019-05-21T02:21:03.284Z,18.20
2019-05-21T02:23:32.669Z,15.27
2019-05-21T02:26:02.165Z,14.37
2019-05-21T02:28:31.626Z,16.90
2019-05-21T02:31:00.998Z,15.63
2019-05-21T02:33:30.370Z,16.93
2019-05-21T02:35:59.978Z,17.50
2019-05-21T02:38:29.476Z,14.93
2019-05-21T02:40:58.987Z,17.70
2019-05-21T02:43:29.179Z,12.47
2019-05-21T02:45:58.631Z,14.67
2019-05-21T02:48:28.119Z,14.20
2019-05-21T02:50:57.632Z,12.77
2019-05-21T02:53:27.101Z,14.40
2019-05-21T02:55:56.472Z,15.03
2019-05-21T02:58:25.899Z,13.43
2019-05-21T03:01:23.483Z,11.90
2019-05-21T03:03:53.028Z,12.50
2019-05-21T03:06:22.516Z,16.33
2019-05-21T03:08:52.496Z,14.63
2019-05-21T03:11:22.720Z,9.43
2019-05-21T03:13:52.354Z,10.77
2019-05-21T03:16:21.725Z,14.23
2019-05-21T03:18:51.150Z,9.40
2019-05-21T03:21:20.660Z,13.40
2019-05-21T03:23:50.204Z,14.13
2019-05-21T03:26:19.606Z,13.13
2019-05-21T03:28:49.178Z,11.60
2019-05-21T03:31:18.533Z,11.83
2019-05-21T03:33:47.954Z,12.40
2019-05-21T03:36:32.875Z,9.57
2019-05-21T03:38:48.638Z,13.43
2019-05-21T03:41:18.036Z,13.73
2019-05-21T03:43:47.440Z,14.53
2019-05-21T03:46:16.933Z,12.93
2019-05-21T03:48:46.531Z,10.40
2019-05-21T03:51:15.896Z,9.33
2019-05-21T03:53:45.298Z,12.40
2019-05-21T03:56:14.812Z,12.03
2019-05-21T03:58:44.366Z,10.00
2019-05-21T04:01:13.759Z,11.03
2019-05-21T04:03:43.158Z,11.77
2019-05-21T04:06:12.615Z,8.37
2019-05-21T04:08:42.034Z,10.77
2019-05-21T04:11:11.561Z,11.83
2019-05-21T04:13:41.013Z,12.43
2019-05-21T04:16:25.823Z,9.63
2019-05-21T04:18:59.130Z,8.33
2019-05-21T04:21:28.658Z,13.23
2019-05-21T04:23:58.125Z,12.30
2019-05-21T04:26:27.500Z,11.57
2019-05-21T04:28:56.865Z,9.50
2019-05-21T04:31:26.407Z,7.77
2019-05-21T04:33:55.895Z,7.33
2019-05-21T04:36:25.839Z,10.13
2019-05-21T04:38:55.248Z,6.53
2019-05-21T04:41:24.808Z,12.67
2019-05-21T04:43:54.256Z,5.33
2019-05-21T04:46:23.679Z,11.13
2019-05-21T04:48:53.133Z,5.27
2019-05-21T04:51:22.482Z,7.60
2019-05-21T04:53:51.888Z,7.43
2019-05-21T04:56:21.425Z,7.70
2019-05-21T04:58:50.953Z,7.03
2019-05-21T05:01:21.275Z,9.75
2019-05-21T05:03:50.772Z,7.25
2019-05-21T05:06:20.274Z,4.97
2019-05-21T05:08:49.814Z,9.23
2019-05-21T05:11:19.165Z,8.35
2019-05-21T05:13:48.620Z,5.15
2019-05-21T05:16:18.164Z,7.20
2019-05-21T05:18:47.732Z,8.25
2019-05-21T05:21:17.097Z,5.45
2019-05-21T05:23:46.531Z,8.18
2019-05-21T05:26:16.097Z,6.37
2019-05-21T05:28:45.616Z,6.33
2019-05-21T05:31:15.555Z,9.90
2019-05-21T05:33:45.080Z,6.97
2019-05-21T05:36:13.255Z,6.17
2019-05-21T05:38:42.927Z,5.00
2019-05-21T05:41:12.285Z,6.47
2019-05-21T05:43:41.656Z,7.47
2019-05-21T05:46:11.179Z,17.67
2019-05-21T05:48:47.727Z,6.50
2019-05-21T05:51:17.122Z,6.15
2019-05-21T05:53:58.826Z,5.10
2019-05-21T05:56:29.612Z,8.70
2019-05-21T05:58:59.128Z,8.65
2019-05-21T06:01:30.356Z,5.05
2019-05-21T06:03:59.740Z,6.75
2019-05-21T06:06:29.300Z,7.10
2019-05-21T06:08:58.679Z,6.37
2019-05-21T06:11:28.352Z,6.20
2019-05-21T06:13:57.815Z,4.60
2019-05-21T06:16:27.173Z,6.83
2019-05-21T06:18:56.583Z,8.23
2019-05-21T06:21:26.027Z,10.00
2019-05-21T06:23:55.554Z,5.37
2019-05-21T06:26:25.020Z,8.97
2019-05-21T06:28:54.391Z,6.27
2019-05-21T06:31:23.940Z,11.80
2019-05-21T06:33:53.448Z,8.23
2019-05-21T06:36:22.839Z,5.83
2019-05-21T06:38:52.236Z,8.40
2019-05-21T06:41:21.737Z,8.10
2019-05-21T06:43:52.389Z,8.63
2019-05-21T06:46:21.962Z,11.87
2019-05-21T06:48:51.491Z,10.50
2019-05-21T06:51:20.861Z,8.13
2019-05-21T06:53:50.218Z,10.23
2019-05-21T06:56:19.758Z,11.10
2019-05-21T06:58:49.264Z,11.63
2019-05-21T07:01:27.104Z,9.90
2019-05-21T07:03:49.789Z,9.00
2019-05-21T07:06:19.245Z,10.37
2019-05-21T07:08:48.708Z,11.00
2019-05-21T07:11:18.120Z,9.50
2019-05-21T07:13:47.480Z,10.63
2019-05-21T07:16:16.994Z,19.57
2019-05-21T07:18:46.505Z,10.53
2019-05-21T07:21:15.856Z,7.77
2019-05-21T07:23:47.967Z,6.67
2019-05-21T07:26:17.493Z,5.33
2019-05-21T07:28:57.141Z,7.83
2019-05-21T07:31:26.950Z,7.00
2019-05-21T07:33:56.411Z,8.43
2019-05-21T07:36:25.760Z,6.00
2019-05-21T07:38:55.160Z,7.13
2019-05-21T07:41:24.618Z,10.60
2019-05-21T07:43:54.089Z,6.07
2019-05-21T07:46:23.533Z,4.97
2019-05-21T07:48:53.166Z,5.23
2019-05-21T07:51:22.652Z,6.17
2019-05-21T07:53:52.155Z,7.87
2019-05-21T07:56:21.523Z,7.28
2019-05-21T07:58:50.918Z,9.10
2019-05-21T08:01:20.394Z,8.50
2019-05-21T08:03:49.873Z,10.97
2019-05-21T08:06:19.278Z,10.68
2019-05-21T08:08:48.851Z,6.70
2019-05-21T08:11:18.201Z,7.87
2019-05-21T08:13:47.594Z,7.43
2019-05-21T08:16:17.127Z,10.40
2019-05-21T08:18:46.537Z,6.73
2019-05-21T08:21:15.906Z,13.60
2019-05-21T08:23:45.342Z,7.58
2019-05-21T08:26:14.833Z,10.08
2019-05-21T08:28:44.364Z,8.47
2019-05-21T08:31:13.779Z,7.53
2019-05-21T08:33:43.153Z,6.47
2019-05-21T08:36:12.646Z,5.93
2019-05-21T08:38:42.163Z,9.03
2019-05-21T08:41:11.645Z,8.30
2019-05-21T08:43:41.039Z,14.85
2019-05-21T08:46:10.662Z,5.93
2019-05-21T08:48:40.032Z,4.20
2019-05-21T08:51:09.477Z,5.47
2019-05-21T08:53:38.983Z,4.95
2019-05-21T08:56:08.445Z,6.95
2019-05-21T08:58:37.815Z,5.00
2019-05-21T09:01:07.325Z,4.83
2019-05-21T09:03:36.769Z,7.65
2019-05-21T09:06:06.136Z,9.03
2019-05-21T09:08:35.541Z,6.13
2019-05-21T09:11:05.141Z,11.10
2019-05-21T09:13:34.625Z,6.97
2019-05-21T09:16:04.174Z,9.50
2019-05-21T09:18:33.567Z,10.28
2019-05-21T09:21:03.080Z,6.47
2019-05-21T09:23:32.620Z,7.62
2019-05-21T09:26:02.006Z,4.92
2019-05-21T09:28:31.474Z,6.30
2019-05-21T09:31:02.000Z,5.85
2019-05-21T09:33:31.699Z,5.70
2019-05-21T09:36:01.160Z,5.22
2019-05-21T09:38:30.678Z,5.33
2019-05-21T09:41:00.045Z,4.90
2019-05-21T09:43:29.468Z,7.27
2019-05-21T09:45:59.017Z,7.60
2019-05-21T09:48:28.582Z,6.13
2019-05-21T09:50:57.984Z,5.10
2019-05-21T09:53:27.463Z,7.10
2019-05-21T09:55:58.566Z,7.57
2019-05-21T09:58:35.114Z,7.17
2019-05-21T10:01:35.775Z,11.15
2019-05-21T10:04:05.432Z,6.17
2019-05-21T10:06:35.009Z,7.67
2019-05-21T10:09:07.395Z,7.58
2019-05-21T10:11:37.018Z,5.72
2019-05-21T10:14:06.718Z,4.33
2019-05-21T10:16:36.102Z,5.50
2019-05-21T10:19:05.546Z,5.27
2019-05-21T10:21:35.008Z,5.33
2019-05-21T10:24:04.581Z,9.28
2019-05-21T10:26:34.012Z,6.95
2019-05-21T10:29:03.443Z,7.85
2019-05-21T10:31:33.033Z,9.38
2019-05-21T10:34:02.647Z,6.60
2019-05-21T10:36:32.079Z,9.55
2019-05-21T10:39:01.452Z,5.58
2019-05-21T10:41:30.962Z,6.50
2019-05-21T10:44:00.459Z,5.28
2019-05-21T10:46:29.831Z,8.15
2019-05-21T10:48:59.267Z,12.13
2019-05-21T10:51:28.867Z,5.30
2019-05-21T10:53:58.450Z,4.60
2019-05-21T10:56:28.805Z,6.17
2019-05-21T10:58:58.220Z,6.62
2019-05-21T11:01:45.322Z,5.20
2019-05-21T11:04:32.464Z,6.62
2019-05-21T11:07:01.933Z,5.55
2019-05-21T11:09:31.801Z,4.30
2019-05-21T11:12:01.320Z,7.62
2019-05-21T11:14:30.808Z,8.30
2019-05-21T11:17:00.181Z,8.63
2019-05-21T11:19:29.560Z,6.00
2019-05-21T11:21:59.106Z,6.37
2019-05-21T11:24:28.632Z,5.47
2019-05-21T11:26:58.204Z,5.67
2019-05-21T11:29:27.740Z,4.37
2019-05-21T11:31:57.865Z,4.95
2019-05-21T11:34:27.432Z,7.25
2019-05-21T11:36:56.974Z,5.60
2019-05-21T11:39:26.443Z,12.80
2019-05-21T11:41:55.825Z,7.15
2019-05-21T11:44:25.296Z,8.43
2019-05-21T11:46:54.824Z,11.68
2019-05-21T11:49:24.284Z,5.10
2019-05-21T11:51:53.792Z,8.68
2019-05-21T11:54:23.226Z,5.05
2019-05-21T11:56:52.781Z,8.75
2019-05-21T11:59:22.359Z,6.92
2019-05-21T12:01:54.802Z,3.62
2019-05-21T12:04:24.181Z,6.45
2019-05-21T12:06:53.826Z,7.50
2019-05-21T12:09:23.190Z,4.70
2019-05-21T12:11:52.735Z,4.67
2019-05-21T12:14:26.733Z,4.60
2019-05-21T12:17:15.535Z,6.40
2019-05-21T12:20:02.168Z,4.22
2019-05-21T12:22:44.939Z,4.97
2019-05-21T12:25:16.851Z,3.75
2019-05-21T12:27:46.825Z,5.03
2019-05-21T12:30:16.567Z,4.40
2019-05-21T12:32:46.504Z,5.37
2019-05-21T12:35:16.085Z,8.98
2019-05-21T12:37:45.736Z,3.98
2019-05-21T12:40:15.936Z,5.03
2019-05-21T12:42:45.473Z,6.42
2019-05-21T12:45:16.938Z,5.87
2019-05-21T12:47:46.400Z,8.63
2019-05-21T12:50:24.719Z,5.60
2019-05-21T12:53:16.252Z,6.95
2019-05-21T12:55:41.436Z,4.45
2019-05-21T12:58:10.968Z,5.42
2019-05-21T13:00:42.367Z,5.40
2019-05-21T13:03:11.886Z,5.17
2019-05-21T13:05:41.373Z,4.53
2019-05-21T13:08:10.928Z,5.67
2019-05-21T13:10:40.399Z,4.15
2019-05-21T13:13:09.840Z,4.10
2019-05-21T13:15:39.268Z,4.37
2019-05-21T13:18:08.726Z,6.55
2019-05-21T13:20:38.203Z,4.70
2019-05-21T13:23:07.709Z,7.53
2019-05-21T13:25:37.780Z,3.98
2019-05-21T13:28:07.539Z,3.42
2019-05-21T13:30:36.977Z,10.32
2019-05-21T13:33:06.485Z,4.78
2019-05-21T13:35:35.931Z,5.60
2019-05-21T13:38:05.444Z,3.37
2019-05-21T13:40:35.693Z,5.58
2019-05-21T13:43:05.294Z,3.72
2019-05-21T13:45:34.795Z,3.47
2019-05-21T13:48:04.170Z,3.72
2019-05-21T13:50:34.027Z,3.25
2019-05-21T13:53:03.531Z,3.52
2019-05-21T13:55:34.076Z,6.62
2019-05-21T13:58:03.604Z,7.85
2019-05-21T14:00:39.713Z,4.22
2019-05-21T14:03:09.468Z,4.30
2019-05-21T14:05:39.622Z,6.10
2019-05-21T14:08:09.188Z,5.72
2019-05-21T14:10:39.064Z,4.67
2019-05-21T14:13:08.629Z,4.00
2019-05-21T14:15:38.173Z,8.85
2019-05-21T14:18:08.003Z,3.22
2019-05-21T14:20:37.587Z,5.72
2019-05-21T14:23:07.189Z,5.30
2019-05-21T14:25:36.667Z,4.45
2019-05-21T14:28:06.132Z,4.25
2019-05-21T14:30:35.710Z,5.50
2019-05-21T14:33:05.151Z,10.58
2019-05-21T14:35:34.510Z,6.20
2019-05-21T14:38:04.094Z,4.25
2019-05-21T14:40:33.750Z,4.28
2019-05-21T14:43:03.109Z,6.58
2019-05-21T14:45:34.131Z,6.78
2019-05-21T14:48:04.127Z,6.12
2019-05-21T14:50:33.508Z,7.65
2019-05-21T14:53:03.075Z,2.75
2019-05-21T14:55:32.541Z,5.10
2019-05-21T14:58:01.899Z,2.75
2019-05-21T15:00:34.932Z,7.60
2019-05-21T15:03:04.540Z,4.08
2019-05-21T15:05:34.929Z,3.42
2019-05-21T15:08:04.953Z,3.27
2019-05-21T15:10:47.756Z,3.10
2019-05-21T15:13:06.591Z,3.30
2019-05-21T15:15:36.855Z,4.20
2019-05-21T15:18:06.490Z,5.50
2019-05-21T15:20:50.844Z,3.62
2019-05-21T15:23:20.294Z,2.75
2019-05-21T15:25:49.768Z,5.72
2019-05-21T15:28:19.202Z,4.37
2019-05-21T15:30:48.652Z,3.95
2019-05-21T15:33:18.019Z,3.95
2019-05-21T15:35:47.458Z,6.05
2019-05-21T15:38:16.970Z,4.10
2019-05-21T15:40:46.480Z,4.65
2019-05-21T15:43:15.894Z,3.80
2019-05-21T15:45:45.266Z,3.92
2019-05-21T15:48:14.793Z,3.62
2019-05-21T15:50:44.409Z,4.25
2019-05-21T15:53:13.785Z,3.50
2019-05-21T15:55:44.543Z,4.90
2019-05-21T15:58:14.072Z,4.22
2019-05-21T16:00:43.656Z,12.35
2019-05-21T16:03:13.014Z,4.10
2019-05-21T16:05:42.540Z,3.17
2019-05-21T16:08:11.994Z,2.40
2019-05-21T16:10:41.474Z,4.80
2019-05-21T16:13:10.982Z,5.87
2019-05-21T16:15:40.379Z,1.50
2019-05-21T16:18:09.855Z,2.85
2019-05-21T16:20:42.495Z,3.72
2019-05-21T16:23:10.536Z,1.82
2019-05-21T16:25:39.916Z,2.20
2019-05-21T16:28:09.641Z,2.42
2019-05-21T16:30:39.227Z,2.47
2019-05-21T16:33:09.047Z,2.70
2019-05-21T16:35:38.455Z,2.98
2019-05-21T16:38:07.914Z,4.45
2019-05-21T16:40:37.485Z,2.60
2019-05-21T16:43:07.001Z,3.08
2019-05-21T16:45:36.371Z,5.78
2019-05-21T16:48:06.528Z,1.35
2019-05-21T16:50:35.947Z,1.32
2019-05-21T16:53:05.513Z,3.45
2019-05-21T16:55:36.117Z,3.92
2019-05-21T16:58:05.827Z,2.80
2019-05-21T17:00:35.281Z,1.42
2019-05-21T17:03:04.836Z,1.90
2019-05-21T17:05:34.411Z,3.25
2019-05-21T17:08:03.955Z,2.75
2019-05-21T17:10:33.354Z,3.37
2019-05-21T17:13:02.932Z,2.33
2019-05-21T17:15:32.491Z,2.40
2019-05-21T17:18:01.884Z,2.22
2019-05-21T17:20:34.059Z,3.65
2019-05-21T17:23:02.556Z,2.87
2019-05-21T17:25:32.002Z,2.85
2019-05-21T17:28:01.514Z,2.30
2019-05-21T17:30:31.032Z,1.40
2019-05-21T17:33:00.420Z,3.27
2019-05-21T17:35:29.791Z,2.87
2019-05-21T17:37:59.258Z,2.55
2019-05-21T17:40:28.798Z,3.35
2019-05-21T17:42:58.266Z,2.55
2019-05-21T17:45:27.645Z,2.47
2019-05-21T17:47:57.221Z,1.98
2019-05-21T17:50:26.714Z,4.17
2019-05-21T17:52:56.393Z,3.20
2019-05-21T17:55:25.881Z,4.33
2019-05-21T17:57:55.591Z,3.08
2019-05-21T18:00:37.462Z,4.40
2019-05-21T18:03:07.025Z,2.63
2019-05-21T18:05:36.627Z,2.80
2019-05-21T18:08:06.178Z,2.50
2019-05-21T18:10:35.611Z,1.97
2019-05-21T18:13:05.537Z,3.37
2019-05-21T18:15:36.509Z,4.27
2019-05-21T18:18:05.994Z,3.97
2019-05-21T18:20:35.643Z,3.53
2019-05-21T18:23:05.873Z,4.27
2019-05-21T18:25:35.547Z,3.03
2019-05-21T18:28:05.043Z,5.70
2019-05-21T18:30:34.751Z,10.30
2019-05-21T18:33:04.856Z,3.33
2019-05-21T18:35:34.320Z,6.80
2019-05-21T18:38:03.693Z,3.90
2019-05-21T18:40:33.142Z,3.40
2019-05-21T18:43:02.727Z,2.70
2019-05-21T18:45:32.289Z,5.20
2019-05-21T18:48:01.684Z,4.73
2019-05-21T18:50:36.296Z,4.07
2019-05-21T18:53:02.333Z,2.90
2019-05-21T18:55:31.757Z,3.27
2019-05-21T18:58:01.297Z,4.70
2019-05-21T19:00:31.805Z,5.23
2019-05-21T19:03:01.232Z,11.63
2019-05-21T19:05:30.632Z,8.17
2019-05-21T19:08:00.216Z,8.20
2019-05-21T19:10:30.019Z,6.57
2019-05-21T19:13:00.915Z,4.30
2019-05-21T19:15:30.754Z,7.43
2019-05-21T19:18:00.357Z,4.83
2019-05-21T19:20:29.914Z,2.77
2019-05-21T19:22:59.303Z,4.63
2019-05-21T19:25:28.721Z,3.47
2019-05-21T19:27:58.171Z,2.87
2019-05-21T19:30:28.148Z,2.70
2019-05-21T19:32:57.652Z,4.53
2019-05-21T19:35:27.160Z,2.90
2019-05-21T19:37:56.689Z,2.30
2019-05-21T19:40:26.152Z,3.57
2019-05-21T19:42:55.823Z,4.13
2019-05-21T19:45:25.344Z,2.83
2019-05-21T19:47:54.760Z,2.50
2019-05-21T19:50:24.306Z,3.17
2019-05-21T19:52:53.780Z,4.63
2019-05-21T19:55:23.908Z,2.33
2019-05-21T19:57:53.278Z,2.50
2019-05-21T20:00:24.338Z,3.63
2019-05-21T20:02:54.729Z,2.57
2019-05-21T20:05:24.968Z,2.27
2019-05-21T20:07:54.648Z,2.90
2019-05-21T20:10:24.180Z,4.23
2019-05-21T20:12:53.835Z,3.77
2019-05-21T20:15:23.634Z,2.73
2019-05-21T20:18:06.563Z,2.07
2019-05-21T20:20:28.021Z,2.37
2019-05-21T20:22:58.085Z,1.47
2019-05-21T20:25:29.239Z,4.67
2019-05-21T20:27:58.811Z,3.77
2019-05-21T20:30:28.281Z,4.00
2019-05-21T20:32:58.024Z,2.67
2019-05-21T20:35:29.963Z,3.07
2019-05-21T20:37:59.896Z,7.20
2019-05-21T20:40:29.819Z,5.27
2019-05-21T20:42:59.598Z,4.13
2019-05-21T20:45:29.978Z,3.97
2019-05-21T20:47:59.623Z,4.63
2019-05-21T20:50:30.405Z,6.40
2019-05-21T20:52:59.903Z,9.37
2019-05-21T20:55:30.967Z,3.87
2019-05-21T20:58:00.511Z,4.53
2019-05-21T21:00:38.544Z,6.53
2019-05-21T21:03:10.741Z,4.20
2019-05-21T21:05:40.325Z,5.27
2019-05-21T21:08:10.909Z,4.47
2019-05-21T21:10:40.879Z,3.97
2019-05-21T21:13:11.498Z,4.70
2019-05-21T21:15:41.118Z,5.23
2019-05-21T21:18:11.901Z,3.83
2019-05-21T21:20:41.377Z,3.40
2019-05-21T21:23:10.934Z,4.73
2019-05-21T21:25:40.570Z,3.30
2019-05-21T21:28:09.955Z,3.23
2019-05-21T21:30:39.435Z,4.13
2019-05-21T21:33:11.026Z,3.20
2019-05-21T21:35:41.281Z,4.33
2019-05-21T21:38:14.003Z,2.40
2019-05-21T21:40:43.894Z,3.60
2019-05-21T21:43:13.655Z,3.63
2019-05-21T21:45:43.157Z,3.27
2019-05-21T21:48:14.305Z,6.23
2019-05-21T21:50:44.659Z,5.20
2019-05-21T21:53:14.455Z,4.80
2019-05-21T21:55:44.043Z,3.17
2019-05-21T21:58:13.410Z,3.77
2019-05-21T22:01:28.873Z,2.93
2019-05-21T22:04:02.543Z,4.10
2019-05-21T22:06:35.630Z,4.93
2019-05-21T22:09:08.424Z,3.93
2019-05-21T22:11:38.439Z,3.47
2019-05-21T22:14:07.971Z,6.87
2019-05-21T22:16:37.400Z,3.00
2019-05-21T22:19:08.419Z,4.27
2019-05-21T22:21:38.131Z,3.30
2019-05-21T22:24:07.711Z,5.47
2019-05-21T22:26:37.098Z,3.00
2019-05-21T22:29:06.542Z,2.90
2019-05-21T22:31:36.240Z,5.93
2019-05-21T22:34:05.759Z,3.07
2019-05-21T22:36:35.183Z,3.50
2019-05-21T22:39:07.225Z,4.80
2019-05-21T22:41:36.612Z,4.83
2019-05-21T22:44:06.252Z,4.73
2019-05-21T22:46:35.642Z,6.17
2019-05-21T22:49:05.182Z,3.80
2019-05-21T22:51:34.617Z,4.37
2019-05-21T22:54:04.529Z,5.23
2019-05-21T22:56:34.126Z,5.63
2019-05-21T22:59:04.523Z,5.97
2019-05-21T23:01:35.499Z,5.93
2019-05-21T23:04:05.163Z,4.87
2019-05-21T23:06:34.682Z,7.60
2019-05-21T23:09:05.343Z,6.77
2019-05-21T23:11:35.178Z,3.57
2019-05-21T23:14:04.916Z,5.13
2019-05-21T23:16:34.477Z,4.77
2019-05-21T23:19:05.079Z,5.07
2019-05-21T23:21:35.206Z,6.00
2019-05-21T23:24:07.461Z,6.57
2019-05-21T23:26:37.737Z,4.10
2019-05-21T23:29:07.228Z,6.17
2019-05-21T23:31:36.788Z,5.73
2019-05-21T23:34:06.309Z,4.40
2019-05-21T23:36:36.039Z,9.27
2019-05-21T23:39:08.677Z,6.73
2019-05-21T23:41:38.757Z,6.53
2019-05-21T23:44:08.201Z,9.70
2019-05-21T23:46:37.596Z,6.10
2019-05-21T23:49:07.189Z,6.77
2019-05-21T23:51:36.869Z,6.40
2019-05-21T23:54:06.951Z,5.93
2019-05-21T23:56:36.878Z,6.83
2019-05-21T23:59:06.932Z,5.57
